sensor_id;sensor_type;location;lat;lon;timestamp;pressure;altitude;pressure_sealevel;temperature;humidity
39177;BME280;24904;52.208;21.192;2022-10-22T00:04:23;100314.16;;;9.11;77.28
39177;BME280;24904;52.208;21.192;2022-10-22T00:10:12;100308.02;;;9.14;77.59
39177;BME280;24904;52.208;21.192;2022-10-22T00:15:59;100296.12;;;9.14;77.62
39177;BME280;24904;52.208;21.192;2022-10-22T00:21:39;100294.89;;;9.11;77.70
39177;BME280;24904;52.208;21.192;2022-10-22T00:27:31;100295.89;;;9.15;77.90
39177;BME280;24904;52.208;21.192;2022-10-22T00:33:16;100288.98;;;9.14;78.15
39177;BME280;24904;52.208;21.192;2022-10-22T00:39:04;100285.58;;;9.11;78.40
39177;BME280;24904;52.208;21.192;2022-10-22T00:45:09;100282.09;;;9.14;78.58
39177;BME280;24904;52.208;21.192;2022-10-22T00:50:48;100265.53;;;9.15;78.55
39177;BME280;24904;52.208;21.192;2022-10-22T00:56:34;100253.19;;;9.16;78.83
39177;BME280;24904;52.208;21.192;2022-10-22T01:02:20;100248.73;;;9.15;78.83
39177;BME280;24904;52.208;21.192;2022-10-22T01:08:02;100243.58;;;9.16;78.97
39177;BME280;24904;52.208;21.192;2022-10-22T01:13:47;100241.89;;;9.19;79.15
39177;BME280;24904;52.208;21.192;2022-10-22T01:19:46;100245.92;;;9.22;79.35
39177;BME280;24904;52.208;21.192;2022-10-22T01:25:33;100242.29;;;9.27;79.23
39177;BME280;24904;52.208;21.192;2022-10-22T01:31:23;100235.95;;;9.27;79.30
39177;BME280;24904;52.208;21.192;2022-10-22T01:37:05;100234.38;;;9.26;79.38
39177;BME280;24904;52.208;21.192;2022-10-22T01:42:52;100223.14;;;9.28;79.47
39177;BME280;24904;52.208;21.192;2022-10-22T01:48:38;100208.59;;;9.23;79.45
39177;BME280;24904;52.208;21.192;2022-10-22T01:54:29;100223.56;;;9.30;79.74
39177;BME280;24904;52.208;21.192;2022-10-22T02:00:30;100227.35;;;9.31;79.90
39177;BME280;24904;52.208;21.192;2022-10-22T02:06:22;100227.14;;;9.35;79.94
39177;BME280;24904;52.208;21.192;2022-10-22T02:12:02;100229.19;;;9.35;80.03
39177;BME280;24904;52.208;21.192;2022-10-22T02:17:47;100213.36;;;9.34;80.20
39177;BME280;24904;52.208;21.192;2022-10-22T02:23:23;100209.63;;;9.35;80.32
39177;BME280;24904;52.208;21.192;2022-10-22T02:29:05;100210.85;;;9.34;80.56
39177;BME280;24904;52.208;21.192;2022-10-22T02:34:48;100212.31;;;9.38;80.73
39177;BME280;24904;52.208;21.192;2022-10-22T02:40:17;100212.93;;;9.37;80.66
39177;BME280;24904;52.208;21.192;2022-10-22T02:45:59;100202.83;;;9.38;80.98
39177;BME280;24904;52.208;21.192;2022-10-22T02:57:34;100206.32;;;9.34;81.00
39177;BME280;24904;52.208;21.192;2022-10-22T03:03:11;100198.27;;;9.35;81.42
39177;BME280;24904;52.208;21.192;2022-10-22T03:09:00;100202.27;;;9.36;81.60
39177;BME280;24904;52.208;21.192;2022-10-22T03:14:35;100205.41;;;9.37;81.81
39177;BME280;24904;52.208;21.192;2022-10-22T03:20:16;100201.73;;;9.38;81.96
39177;BME280;24904;52.208;21.192;2022-10-22T03:26:11;100201.77;;;9.40;81.96
39177;BME280;24904;52.208;21.192;2022-10-22T03:37:33;100203.42;;;9.46;82.12
39177;BME280;24904;52.208;21.192;2022-10-22T03:43:08;100198.81;;;9.47;82.43
39177;BME280;24904;52.208;21.192;2022-10-22T03:48:50;100206.36;;;9.49;82.53
39177;BME280;24904;52.208;21.192;2022-10-22T03:54:35;100211.16;;;9.51;82.43
39177;BME280;24904;52.208;21.192;2022-10-22T04:00:16;100217.59;;;9.52;82.59
39177;BME280;24904;52.208;21.192;2022-10-22T04:06:02;100206.71;;;9.53;82.80
39177;BME280;24904;52.208;21.192;2022-10-22T04:11:53;100194.20;;;9.56;82.88
39177;BME280;24904;52.208;21.192;2022-10-22T04:17:31;100204.09;;;9.57;83.02
39177;BME280;24904;52.208;21.192;2022-10-22T04:23:10;100203.13;;;9.60;83.06
39177;BME280;24904;52.208;21.192;2022-10-22T04:28:51;100191.81;;;9.64;83.46
39177;BME280;24904;52.208;21.192;2022-10-22T04:34:34;100176.42;;;9.68;83.29
39177;BME280;24904;52.208;21.192;2022-10-22T04:40:02;100156.16;;;9.69;83.52
39177;BME280;24904;52.208;21.192;2022-10-22T04:45:21;100164.27;;;9.73;83.41
39177;BME280;24904;52.208;21.192;2022-10-22T04:50:39;100156.75;;;9.73;83.79
39177;BME280;24904;52.208;21.192;2022-10-22T04:56:10;100156.70;;;9.75;83.69
39177;BME280;24904;52.208;21.192;2022-10-22T05:01:25;100157.20;;;9.78;83.87
39177;BME280;24904;52.208;21.192;2022-10-22T05:06:43;100152.52;;;9.80;83.88
39177;BME280;24904;52.208;21.192;2022-10-22T05:11:55;100152.09;;;9.84;83.98
39177;BME280;24904;52.208;21.192;2022-10-22T05:17:08;100160.54;;;9.90;84.26
39177;BME280;24904;52.208;21.192;2022-10-22T05:22:21;100161.17;;;9.91;84.12
39177;BME280;24904;52.208;21.192;2022-10-22T05:27:34;100162.56;;;9.90;84.07
39177;BME280;24904;52.208;21.192;2022-10-22T05:32:48;100175.69;;;9.93;84.13
39177;BME280;24904;52.208;21.192;2022-10-22T05:38:03;100177.41;;;9.93;83.95
39177;BME280;24904;52.208;21.192;2022-10-22T05:43:15;100177.73;;;9.95;84.04
39177;BME280;24904;52.208;21.192;2022-10-22T05:48:24;100177.44;;;9.97;84.09
39177;BME280;24904;52.208;21.192;2022-10-22T05:53:37;100177.10;;;9.99;84.13
39177;BME280;24904;52.208;21.192;2022-10-22T05:58:45;100168.11;;;10.02;84.30
39177;BME280;24904;52.208;21.192;2022-10-22T06:03:54;100174.08;;;10.03;84.34
39177;BME280;24904;52.208;21.192;2022-10-22T06:09:01;100159.14;;;10.07;84.52
39177;BME280;24904;52.208;21.192;2022-10-22T06:14:10;100156.52;;;10.12;84.61
39177;BME280;24904;52.208;21.192;2022-10-22T06:19:20;100179.13;;;10.14;84.54
39177;BME280;24904;52.208;21.192;2022-10-22T06:24:30;100168.95;;;10.16;84.65
39177;BME280;24904;52.208;21.192;2022-10-22T06:29:37;100183.52;;;10.22;84.51
39177;BME280;24904;52.208;21.192;2022-10-22T06:34:44;100182.84;;;10.24;84.50
39177;BME280;24904;52.208;21.192;2022-10-22T06:39:52;100191.42;;;10.27;84.55
39177;BME280;24904;52.208;21.192;2022-10-22T06:45:01;100185.11;;;10.31;84.58
39177;BME280;24904;52.208;21.192;2022-10-22T06:50:11;100202.61;;;10.32;84.45
39177;BME280;24904;52.208;21.192;2022-10-22T06:55:17;100194.30;;;10.33;84.57
39177;BME280;24904;52.208;21.192;2022-10-22T07:00:25;100188.14;;;10.38;84.58
39177;BME280;24904;52.208;21.192;2022-10-22T07:05:34;100189.91;;;10.42;84.64
39177;BME280;24904;52.208;21.192;2022-10-22T07:10:41;100190.66;;;10.47;84.51
39177;BME280;24904;52.208;21.192;2022-10-22T07:15:53;100200.71;;;10.49;84.68
39177;BME280;24904;52.208;21.192;2022-10-22T07:21:00;100235.64;;;10.53;84.65
39177;BME280;24904;52.208;21.192;2022-10-22T07:26:07;100236.79;;;10.56;84.56
39177;BME280;24904;52.208;21.192;2022-10-22T07:31:19;100232.35;;;10.60;84.61
39177;BME280;24904;52.208;21.192;2022-10-22T07:36:27;100224.67;;;10.62;84.67
39177;BME280;24904;52.208;21.192;2022-10-22T07:41:33;100205.61;;;10.62;84.73
39177;BME280;24904;52.208;21.192;2022-10-22T07:46:40;100204.55;;;10.68;84.73
39177;BME280;24904;52.208;21.192;2022-10-22T07:51:48;100208.82;;;10.70;84.67
39177;BME280;24904;52.208;21.192;2022-10-22T07:56:57;100207.52;;;10.75;84.81
39177;BME280;24904;52.208;21.192;2022-10-22T08:02:08;100217.89;;;10.77;84.99
39177;BME280;24904;52.208;21.192;2022-10-22T08:07:20;100223.08;;;10.79;84.95
39177;BME280;24904;52.208;21.192;2022-10-22T08:12:34;100226.36;;;10.78;84.84
39177;BME280;24904;52.208;21.192;2022-10-22T08:17:45;100231.23;;;10.79;84.99
39177;BME280;24904;52.208;21.192;2022-10-22T08:22:58;100226.95;;;10.83;85.19
39177;BME280;24904;52.208;21.192;2022-10-22T08:28:10;100237.36;;;10.88;85.40
39177;BME280;24904;52.208;21.192;2022-10-22T08:33:22;100245.55;;;10.95;85.53
39177;BME280;24904;52.208;21.192;2022-10-22T08:38:40;100248.45;;;11.00;85.62
39177;BME280;24904;52.208;21.192;2022-10-22T08:44:30;100245.86;;;11.03;85.78
39177;BME280;24904;52.208;21.192;2022-10-22T08:49:49;100233.09;;;11.06;85.55
39177;BME280;24904;52.208;21.192;2022-10-22T08:55:10;100232.24;;;11.10;85.68
39177;BME280;24904;52.208;21.192;2022-10-22T09:00:27;100234.39;;;11.13;85.54
39177;BME280;24904;52.208;21.192;2022-10-22T09:05:52;100236.31;;;11.17;85.67
39177;BME280;24904;52.208;21.192;2022-10-22T09:11:12;100249.27;;;11.21;85.74
39177;BME280;24904;52.208;21.192;2022-10-22T09:16:36;100245.30;;;11.25;85.64
39177;BME280;24904;52.208;21.192;2022-10-22T09:21:59;100252.01;;;11.28;85.59
39177;BME280;24904;52.208;21.192;2022-10-22T09:27:25;100261.29;;;11.31;85.73
39177;BME280;24904;52.208;21.192;2022-10-22T09:32:46;100258.79;;;11.34;85.65
39177;BME280;24904;52.208;21.192;2022-10-22T09:38:10;100243.64;;;11.35;85.54
39177;BME280;24904;52.208;21.192;2022-10-22T09:43:34;100234.48;;;11.40;85.74
39177;BME280;24904;52.208;21.192;2022-10-22T09:48:57;100235.52;;;11.45;85.71
39177;BME280;24904;52.208;21.192;2022-10-22T09:54:23;100237.42;;;11.50;86.00
39177;BME280;24904;52.208;21.192;2022-10-22T09:59:49;100225.70;;;11.58;86.15
39177;BME280;24904;52.208;21.192;2022-10-22T10:05:18;100221.95;;;11.66;86.34
39177;BME280;24904;52.208;21.192;2022-10-22T10:10:53;100227.25;;;11.74;86.25
39177;BME280;24904;52.208;21.192;2022-10-22T10:16:14;100235.31;;;11.78;86.21
39177;BME280;24904;52.208;21.192;2022-10-22T10:21:43;100241.80;;;11.85;86.26
39177;BME280;24904;52.208;21.192;2022-10-22T10:27:08;100235.27;;;11.87;86.23
39177;BME280;24904;52.208;21.192;2022-10-22T10:32:47;100245.59;;;11.93;86.02
39177;BME280;24904;52.208;21.192;2022-10-22T10:38:29;100250.69;;;11.93;85.90
39177;BME280;24904;52.208;21.192;2022-10-22T10:44:00;100249.91;;;11.94;85.75
39177;BME280;24904;52.208;21.192;2022-10-22T10:49:17;100249.91;;;11.94;85.81
39177;BME280;24904;52.208;21.192;2022-10-22T10:54:53;100251.48;;;11.94;85.98
39177;BME280;24904;52.208;21.192;2022-10-22T11:00:16;100258.73;;;11.97;86.12
39177;BME280;24904;52.208;21.192;2022-10-22T11:05:55;100259.07;;;12.00;85.89
39177;BME280;24904;52.208;21.192;2022-10-22T11:11:31;100250.33;;;11.98;85.92
39177;BME280;24904;52.208;21.192;2022-10-22T11:17:00;100252.86;;;12.02;86.08
39177;BME280;24904;52.208;21.192;2022-10-22T11:22:32;100240.52;;;12.05;85.99
39177;BME280;24904;52.208;21.192;2022-10-22T11:28:00;100228.17;;;12.09;86.06
39177;BME280;24904;52.208;21.192;2022-10-22T11:33:35;100222.31;;;12.11;85.97
39177;BME280;24904;52.208;21.192;2022-10-22T11:38:59;100215.15;;;12.11;86.31
39177;BME280;24904;52.208;21.192;2022-10-22T11:44:25;100218.59;;;12.10;86.35
39177;BME280;24904;52.208;21.192;2022-10-22T11:55:50;100211.53;;;12.10;86.62
39177;BME280;24904;52.208;21.192;2022-10-22T12:01:38;100210.72;;;12.05;86.54
39177;BME280;24904;52.208;21.192;2022-10-22T12:12:49;100205.15;;;12.10;86.82
39177;BME280;24904;52.208;21.192;2022-10-22T12:18:13;100199.81;;;12.11;86.91
39177;BME280;24904;52.208;21.192;2022-10-22T12:23:33;100196.43;;;12.13;86.88
39177;BME280;24904;52.208;21.192;2022-10-22T12:28:59;100196.36;;;12.17;86.93
39177;BME280;24904;52.208;21.192;2022-10-22T12:34:26;100189.67;;;12.20;86.91
39177;BME280;24904;52.208;21.192;2022-10-22T12:39:40;100184.19;;;12.21;86.91
39177;BME280;24904;52.208;21.192;2022-10-22T12:44:59;100185.36;;;12.25;86.94
39177;BME280;24904;52.208;21.192;2022-10-22T12:50:19;100196.06;;;12.33;86.69
39177;BME280;24904;52.208;21.192;2022-10-22T12:55:35;100197.39;;;12.35;86.73
39177;BME280;24904;52.208;21.192;2022-10-22T13:00:52;100195.45;;;12.39;86.81
39177;BME280;24904;52.208;21.192;2022-10-22T13:06:20;100190.25;;;12.43;86.92
39177;BME280;24904;52.208;21.192;2022-10-22T13:11:36;100190.02;;;12.47;86.77
39177;BME280;24904;52.208;21.192;2022-10-22T13:16:50;100192.92;;;12.51;86.79
39177;BME280;24904;52.208;21.192;2022-10-22T13:27:24;100199.15;;;12.57;86.57
39177;BME280;24904;52.208;21.192;2022-10-22T13:32:31;100205.84;;;12.60;86.51
39177;BME280;24904;52.208;21.192;2022-10-22T13:37:37;100208.83;;;12.63;86.58
39177;BME280;24904;52.208;21.192;2022-10-22T13:42:42;100207.95;;;12.65;86.46
39177;BME280;24904;52.208;21.192;2022-10-22T13:47:50;100202.60;;;12.64;86.26
39177;BME280;24904;52.208;21.192;2022-10-22T13:52:57;100197.17;;;12.66;86.33
39177;BME280;24904;52.208;21.192;2022-10-22T13:58:05;100199.22;;;12.65;86.27
39177;BME280;24904;52.208;21.192;2022-10-22T14:03:16;100188.91;;;12.66;86.13
39177;BME280;24904;52.208;21.192;2022-10-22T14:08:23;100189.32;;;12.67;86.09
39177;BME280;24904;52.208;21.192;2022-10-22T14:13:30;100186.09;;;12.67;86.02
39177;BME280;24904;52.208;21.192;2022-10-22T14:18:37;100184.67;;;12.69;85.89
39177;BME280;24904;52.208;21.192;2022-10-22T14:23:43;100179.02;;;12.69;85.78
39177;BME280;24904;52.208;21.192;2022-10-22T14:28:49;100183.19;;;12.68;85.85
39177;BME280;24904;52.208;21.192;2022-10-22T14:33:54;100174.92;;;12.64;85.83
39177;BME280;24904;52.208;21.192;2022-10-22T14:38:59;100174.13;;;12.69;85.93
39177;BME280;24904;52.208;21.192;2022-10-22T14:44:04;100173.48;;;12.66;86.07
39177;BME280;24904;52.208;21.192;2022-10-22T14:49:10;100177.27;;;12.64;86.17
39177;BME280;24904;52.208;21.192;2022-10-22T14:54:15;100175.06;;;12.62;86.14
39177;BME280;24904;52.208;21.192;2022-10-22T14:59:21;100178.45;;;12.63;86.04
39177;BME280;24904;52.208;21.192;2022-10-22T15:04:27;100185.36;;;12.64;86.07
39177;BME280;24904;52.208;21.192;2022-10-22T15:09:33;100191.66;;;12.64;86.04
39177;BME280;24904;52.208;21.192;2022-10-22T15:14:38;100187.09;;;12.64;86.15
39177;BME280;24904;52.208;21.192;2022-10-22T15:19:44;100185.28;;;12.65;86.16
39177;BME280;24904;52.208;21.192;2022-10-22T15:24:50;100192.47;;;12.68;86.17
39177;BME280;24904;52.208;21.192;2022-10-22T15:29:56;100189.00;;;12.65;86.25
39177;BME280;24904;52.208;21.192;2022-10-22T15:35:02;100191.69;;;12.68;86.27
39177;BME280;24904;52.208;21.192;2022-10-22T15:40:09;100200.08;;;12.66;86.30
39177;BME280;24904;52.208;21.192;2022-10-22T15:45:13;100201.19;;;12.64;86.58
39177;BME280;24904;52.208;21.192;2022-10-22T15:50:19;100202.52;;;12.63;86.60
39177;BME280;24904;52.208;21.192;2022-10-22T15:55:25;100208.20;;;12.62;86.69
39177;BME280;24904;52.208;21.192;2022-10-22T16:00:29;100203.80;;;12.57;86.75
39177;BME280;24904;52.208;21.192;2022-10-22T16:05:34;100206.86;;;12.61;86.73
39177;BME280;24904;52.208;21.192;2022-10-22T16:10:45;100209.69;;;12.61;86.98
39177;BME280;24904;52.208;21.192;2022-10-22T16:15:51;100217.95;;;12.60;86.95
39177;BME280;24904;52.208;21.192;2022-10-22T16:20:55;100217.41;;;12.61;86.97
39177;BME280;24904;52.208;21.192;2022-10-22T16:26:02;100221.41;;;12.60;87.18
39177;BME280;24904;52.208;21.192;2022-10-22T16:31:09;100216.85;;;12.56;87.09
39177;BME280;24904;52.208;21.192;2022-10-22T16:36:15;100229.22;;;12.60;87.14
39177;BME280;24904;52.208;21.192;2022-10-22T16:41:21;100227.79;;;12.58;87.22
39177;BME280;24904;52.208;21.192;2022-10-22T16:46:24;100234.95;;;12.62;87.30
39177;BME280;24904;52.208;21.192;2022-10-22T16:51:28;100237.55;;;12.62;87.20
39177;BME280;24904;52.208;21.192;2022-10-22T16:56:33;100240.30;;;12.61;87.24
39177;BME280;24904;52.208;21.192;2022-10-22T17:01:39;100238.26;;;12.62;87.37
39177;BME280;24904;52.208;21.192;2022-10-22T17:06:44;100238.09;;;12.61;87.44
39177;BME280;24904;52.208;21.192;2022-10-22T17:11:49;100237.47;;;12.61;87.56
39177;BME280;24904;52.208;21.192;2022-10-22T17:16:53;100240.54;;;12.61;87.40
39177;BME280;24904;52.208;21.192;2022-10-22T17:22:00;100238.80;;;12.62;87.66
39177;BME280;24904;52.208;21.192;2022-10-22T17:27:04;100241.65;;;12.61;87.56
39177;BME280;24904;52.208;21.192;2022-10-22T17:32:08;100239.36;;;12.61;87.71
39177;BME280;24904;52.208;21.192;2022-10-22T17:37:13;100237.80;;;12.57;87.68
39177;BME280;24904;52.208;21.192;2022-10-22T17:42:17;100240.39;;;12.55;87.97
39177;BME280;24904;52.208;21.192;2022-10-22T17:47:21;100239.52;;;12.56;88.18
39177;BME280;24904;52.208;21.192;2022-10-22T17:52:25;100241.73;;;12.58;88.08
39177;BME280;24904;52.208;21.192;2022-10-22T17:57:31;100235.11;;;12.52;88.33
39177;BME280;24904;52.208;21.192;2022-10-22T18:02:36;100244.24;;;12.56;88.46
39177;BME280;24904;52.208;21.192;2022-10-22T18:07:41;100249.05;;;12.57;88.58
39177;BME280;24904;52.208;21.192;2022-10-22T18:12:44;100240.15;;;12.52;88.62
39177;BME280;24904;52.208;21.192;2022-10-22T18:17:49;100252.59;;;12.57;88.70
39177;BME280;24904;52.208;21.192;2022-10-22T18:22:54;100248.81;;;12.59;88.75
39177;BME280;24904;52.208;21.192;2022-10-22T18:27:58;100250.69;;;12.60;88.89
39177;BME280;24904;52.208;21.192;2022-10-22T18:33:02;100250.23;;;12.60;88.93
39177;BME280;24904;52.208;21.192;2022-10-22T18:38:08;100245.18;;;12.57;88.98
39177;BME280;24904;52.208;21.192;2022-10-22T18:43:13;100245.42;;;12.60;89.01
39177;BME280;24904;52.208;21.192;2022-10-22T18:48:18;100250.14;;;12.61;89.21
39177;BME280;24904;52.208;21.192;2022-10-22T18:53:24;100246.52;;;12.64;89.27
39177;BME280;24904;52.208;21.192;2022-10-22T18:58:28;100247.15;;;12.64;89.20
39177;BME280;24904;52.208;21.192;2022-10-22T19:03:31;100252.44;;;12.66;89.28
39177;BME280;24904;52.208;21.192;2022-10-22T19:08:35;100252.68;;;12.66;89.43
39177;BME280;24904;52.208;21.192;2022-10-22T19:13:40;100258.42;;;12.69;89.45
39177;BME280;24904;52.208;21.192;2022-10-22T19:18:44;100261.58;;;12.69;89.58
39177;BME280;24904;52.208;21.192;2022-10-22T19:23:47;100261.17;;;12.70;89.72
39177;BME280;24904;52.208;21.192;2022-10-22T19:28:52;100263.14;;;12.71;89.72
39177;BME280;24904;52.208;21.192;2022-10-22T19:33:57;100267.00;;;12.72;89.77
39177;BME280;24904;52.208;21.192;2022-10-22T19:39:02;100272.51;;;12.74;89.82
39177;BME280;24904;52.208;21.192;2022-10-22T19:44:06;100276.13;;;12.76;89.98
39177;BME280;24904;52.208;21.192;2022-10-22T19:49:10;100281.09;;;12.76;89.93
39177;BME280;24904;52.208;21.192;2022-10-22T19:54:15;100281.72;;;12.75;89.96
39177;BME280;24904;52.208;21.192;2022-10-22T20:07:32;100300.92;;;12.82;90.11
39177;BME280;24904;52.208;21.192;2022-10-22T20:12:38;100306.28;;;12.81;90.18
39177;BME280;24904;52.208;21.192;2022-10-22T20:17:44;100309.13;;;12.83;90.19
39177;BME280;24904;52.208;21.192;2022-10-22T20:22:50;100313.85;;;12.83;90.34
39177;BME280;24904;52.208;21.192;2022-10-22T20:27:56;100317.08;;;12.85;90.40
39177;BME280;24904;52.208;21.192;2022-10-22T20:33:03;100321.88;;;12.84;90.41
39177;BME280;24904;52.208;21.192;2022-10-22T20:38:49;100324.32;;;12.88;90.62
39177;BME280;24904;52.208;21.192;2022-10-22T20:43:54;100328.58;;;12.85;90.66
39177;BME280;24904;52.208;21.192;2022-10-22T20:49:02;100333.39;;;12.85;90.60
39177;BME280;24904;52.208;21.192;2022-10-22T20:54:09;100337.95;;;12.82;90.74
39177;BME280;24904;52.208;21.192;2022-10-22T20:59:15;100340.08;;;12.84;90.89
39177;BME280;24904;52.208;21.192;2022-10-22T21:04:22;100340.77;;;12.81;91.03
39177;BME280;24904;52.208;21.192;2022-10-22T21:09:29;100343.14;;;12.82;91.14
39177;BME280;24904;52.208;21.192;2022-10-22T21:14:38;100339.42;;;12.80;91.15
39177;BME280;24904;52.208;21.192;2022-10-22T21:19:45;100338.16;;;12.78;91.25
39177;BME280;24904;52.208;21.192;2022-10-22T21:24:51;100333.52;;;12.78;91.34
39177;BME280;24904;52.208;21.192;2022-10-22T21:29:58;100336.98;;;12.78;91.43
39177;BME280;24904;52.208;21.192;2022-10-22T21:35:06;100342.80;;;12.76;91.52
39177;BME280;24904;52.208;21.192;2022-10-22T21:40:13;100346.49;;;12.79;91.59
39177;BME280;24904;52.208;21.192;2022-10-22T21:45:20;100348.94;;;12.77;91.75
39177;BME280;24904;52.208;21.192;2022-10-22T21:50:26;100349.97;;;12.74;91.95
39177;BME280;24904;52.208;21.192;2022-10-22T21:55:38;100349.89;;;12.74;92.05
39177;BME280;24904;52.208;21.192;2022-10-22T22:00:53;100344.84;;;12.77;92.09
39177;BME280;24904;52.208;21.192;2022-10-22T22:06:01;100356.97;;;12.77;92.26
39177;BME280;24904;52.208;21.192;2022-10-22T22:11:11;100357.20;;;12.77;92.25
39177;BME280;24904;52.208;21.192;2022-10-22T22:16:22;100360.59;;;12.78;92.39
39177;BME280;24904;52.208;21.192;2022-10-22T22:21:30;100361.85;;;12.78;92.44
39177;BME280;24904;52.208;21.192;2022-10-22T22:26:40;100361.30;;;12.79;92.52
39177;BME280;24904;52.208;21.192;2022-10-22T22:31:47;100370.43;;;12.79;92.61
39177;BME280;24904;52.208;21.192;2022-10-22T22:36:54;100371.05;;;12.76;92.70
39177;BME280;24904;52.208;21.192;2022-10-22T22:42:01;100380.59;;;12.79;92.83
39177;BME280;24904;52.208;21.192;2022-10-22T22:47:07;100378.31;;;12.81;92.89
39177;BME280;24904;52.208;21.192;2022-10-22T22:52:15;100384.61;;;12.80;92.90
39177;BME280;24904;52.208;21.192;2022-10-22T22:57:23;100385.95;;;12.80;92.94
39177;BME280;24904;52.208;21.192;2022-10-22T23:02:32;100387.83;;;12.79;92.92
39177;BME280;24904;52.208;21.192;2022-10-22T23:07:40;100395.55;;;12.79;93.02
39177;BME280;24904;52.208;21.192;2022-10-22T23:12:49;100401.91;;;12.79;93.14
39177;BME280;24904;52.208;21.192;2022-10-22T23:18:00;100409.48;;;12.81;93.11
39177;BME280;24904;52.208;21.192;2022-10-22T23:23:08;100406.66;;;12.81;93.11
39177;BME280;24904;52.208;21.192;2022-10-22T23:28:16;100407.59;;;12.79;93.19
39177;BME280;24904;52.208;21.192;2022-10-22T23:33:23;100416.52;;;12.82;93.21
39177;BME280;24904;52.208;21.192;2022-10-22T23:38:31;100420.58;;;12.77;93.15
39177;BME280;24904;52.208;21.192;2022-10-22T23:43:39;100420.09;;;12.74;93.33
39177;BME280;24904;52.208;21.192;2022-10-22T23:48:46;100421.84;;;12.75;93.40
39177;BME280;24904;52.208;21.192;2022-10-22T23:53:58;100428.13;;;12.74;93.36
39177;BME280;24904;52.208;21.192;2022-10-22T23:59:07;100435.77;;;12.74;93.24
